createdAt,value
2023-05-04T00:00:07.799Z,2.92
2023-05-04T00:02:54.120Z,2.97
2023-05-04T00:05:39.951Z,2.83
2023-05-04T00:08:26.008Z,2.70
2023-05-04T00:11:12.126Z,2.30
2023-05-04T00:13:58.081Z,2.58
2023-05-04T00:16:44.255Z,2.90
2023-05-04T00:19:30.075Z,3.05
2023-05-04T00:22:16.345Z,3.17
2023-05-04T00:25:02.263Z,3.55
2023-05-04T00:27:48.033Z,3.20
2023-05-04T00:30:33.854Z,3.30
2023-05-04T00:33:19.848Z,2.65
2023-05-04T00:36:06.088Z,2.70
2023-05-04T00:38:54.402Z,2.83
2023-05-04T00:41:40.871Z,2.53
2023-05-04T00:44:26.616Z,2.58
2023-05-04T00:47:13.500Z,2.70
2023-05-04T00:49:59.713Z,2.80
2023-05-04T00:52:47.072Z,2.60
2023-05-04T00:55:32.793Z,2.35
2023-05-04T00:58:19.124Z,2.30
2023-05-04T01:01:05.290Z,2.45
2023-05-04T01:03:52.175Z,2.33
2023-05-04T01:06:40.947Z,2.20
2023-05-04T01:09:26.682Z,2.47
2023-05-04T01:12:22.672Z,2.40
2023-05-04T01:15:10.081Z,2.47
2023-05-04T01:17:55.964Z,2.83
2023-05-04T01:20:42.736Z,2.58
2023-05-04T01:23:28.709Z,2.33
2023-05-04T01:26:30.316Z,2.78
2023-05-04T01:29:35.096Z,3.08
2023-05-04T01:32:22.202Z,2.90
2023-05-04T01:35:08.876Z,3.28
2023-05-04T01:37:54.907Z,2.70
2023-05-04T01:40:41.324Z,3.40
2023-05-04T01:43:27.278Z,3.60
2023-05-04T01:46:13.243Z,4.15
2023-05-04T01:48:59.356Z,5.22
2023-05-04T01:51:46.929Z,9.60
2023-05-04T01:54:32.882Z,9.75
2023-05-04T01:57:18.910Z,6.60
2023-05-04T02:00:05.464Z,4.47
2023-05-04T02:03:01.060Z,3.95
2023-05-04T02:05:47.266Z,3.63
2023-05-04T02:08:35.131Z,3.38
2023-05-04T02:11:21.752Z,3.38
2023-05-04T02:14:07.923Z,3.00
2023-05-04T02:16:53.654Z,2.40
2023-05-04T02:19:39.387Z,2.53
2023-05-04T02:22:25.842Z,2.70
2023-05-04T02:25:12.073Z,2.63
2023-05-04T02:27:57.763Z,2.50
2023-05-04T02:30:43.692Z,2.58
2023-05-04T02:33:29.676Z,2.70
2023-05-04T02:36:15.611Z,2.40
2023-05-04T02:39:03.245Z,2.50
2023-05-04T02:41:48.963Z,2.90
2023-05-04T02:44:34.750Z,2.45
2023-05-04T02:47:20.534Z,2.50
2023-05-04T02:50:07.550Z,2.70
2023-05-04T02:52:53.590Z,2.15
2023-05-04T02:55:39.372Z,2.47
2023-05-04T02:58:25.077Z,2.53
2023-05-04T03:01:16.439Z,2.75
2023-05-04T03:04:03.456Z,2.17
2023-05-04T03:06:49.507Z,2.50
2023-05-04T03:09:35.848Z,2.22
2023-05-04T03:12:21.638Z,2.60
2023-05-04T03:15:08.254Z,3.15
2023-05-04T03:17:54.321Z,5.43
2023-05-04T03:20:41.099Z,3.22
2023-05-04T03:23:29.928Z,17.42
2023-05-04T03:26:15.810Z,3.30
2023-05-04T03:29:01.901Z,2.50
2023-05-04T03:31:48.325Z,2.33
2023-05-04T03:34:36.028Z,2.78
2023-05-04T03:37:24.496Z,2.25
2023-05-04T03:40:10.722Z,2.85
2023-05-04T03:42:57.788Z,2.60
2023-05-04T03:45:44.005Z,3.13
2023-05-04T03:48:29.749Z,2.50
2023-05-04T03:51:15.768Z,3.17
2023-05-04T03:54:02.144Z,2.70
2023-05-04T03:56:48.059Z,2.47
2023-05-04T03:59:36.760Z,2.95
2023-05-04T04:02:24.861Z,2.60
2023-05-04T04:05:10.825Z,2.47
2023-05-04T04:07:58.462Z,3.47
2023-05-04T04:10:45.930Z,2.25
2023-05-04T04:13:31.581Z,2.88
2023-05-04T04:16:17.322Z,4.78
2023-05-04T04:19:03.237Z,3.58
2023-05-04T04:21:49.046Z,2.30
2023-05-04T04:24:35.129Z,2.47
2023-05-04T04:27:20.898Z,2.45
2023-05-04T04:30:07.369Z,2.53
2023-05-04T04:32:54.865Z,2.25
2023-05-04T04:35:41.734Z,2.53
2023-05-04T04:38:27.894Z,2.60
2023-05-04T04:41:14.291Z,2.63
2023-05-04T04:44:00.114Z,2.40
2023-05-04T04:46:46.727Z,2.00
2023-05-04T04:49:32.721Z,2.47
2023-05-04T04:52:18.968Z,2.40
2023-05-04T04:55:05.473Z,2.35
2023-05-04T04:57:52.565Z,2.30
2023-05-04T05:00:40.850Z,2.80
2023-05-04T05:03:26.736Z,2.80
2023-05-04T05:06:13.797Z,2.72
2023-05-04T05:08:59.838Z,2.78
2023-05-04T05:11:45.897Z,2.22
2023-05-04T05:14:31.965Z,2.25
2023-05-04T05:17:19.215Z,3.47
2023-05-04T05:20:11.830Z,7.05
2023-05-04T05:23:00.417Z,2.10
2023-05-04T05:25:46.376Z,2.13
2023-05-04T05:28:32.496Z,2.85
2023-05-04T05:31:18.300Z,2.40
2023-05-04T05:34:04.157Z,1.85
2023-05-04T05:36:49.852Z,2.03
2023-05-04T05:39:37.063Z,2.10
2023-05-04T05:42:22.871Z,2.17
2023-05-04T05:45:10.343Z,2.05
2023-05-04T05:47:56.545Z,2.42
2023-05-04T05:50:42.257Z,2.10
2023-05-04T05:53:28.126Z,2.40
2023-05-04T05:56:14.902Z,2.42
2023-05-04T05:59:00.920Z,2.55
2023-05-04T06:01:48.028Z,1.75
2023-05-04T06:04:34.407Z,1.73
2023-05-04T06:07:21.743Z,2.30
2023-05-04T06:10:08.888Z,2.03
2023-05-04T06:12:54.740Z,1.55
2023-05-04T06:15:41.153Z,2.17
2023-05-04T06:18:27.241Z,1.95
2023-05-04T06:21:13.415Z,2.20
2023-05-04T06:23:59.574Z,2.13
2023-05-04T06:31:54.896Z,2.22
2023-05-04T06:34:41.116Z,3.08
2023-05-04T06:37:27.195Z,2.60
2023-05-04T06:40:14.082Z,1.90
2023-05-04T06:43:00.531Z,2.38
2023-05-04T06:45:46.391Z,12.63
2023-05-04T06:48:32.539Z,9.18
2023-05-04T06:51:18.218Z,21.63
2023-05-04T06:54:04.297Z,98.90
2023-05-04T06:56:51.537Z,32.03
2023-05-04T06:59:37.240Z,18.33
2023-05-04T07:02:23.184Z,12.45
2023-05-04T07:05:09.967Z,13.07
2023-05-04T07:07:56.424Z,5.28
2023-05-04T07:10:42.254Z,2.60
2023-05-04T07:13:28.498Z,2.83
2023-05-04T07:16:14.290Z,2.38
2023-05-04T07:19:00.240Z,2.70
2023-05-04T07:21:45.898Z,4.82
2023-05-04T07:24:31.944Z,2.45
2023-05-04T07:27:18.046Z,2.72
2023-05-04T07:30:06.761Z,2.63
2023-05-04T07:32:52.891Z,4.28
2023-05-04T07:35:38.699Z,4.40
2023-05-04T07:38:26.898Z,3.08
2023-05-04T07:41:13.027Z,2.88
2023-05-04T07:43:59.471Z,3.70
2023-05-04T07:46:45.305Z,3.25
2023-05-04T07:49:31.567Z,7.72
2023-05-04T07:52:17.297Z,7.50
2023-05-04T07:55:03.031Z,4.10
2023-05-04T07:57:49.122Z,1.80
2023-05-04T08:00:37.425Z,2.15
2023-05-04T08:03:23.524Z,1.70
2023-05-04T08:06:09.866Z,1.85
2023-05-04T08:08:55.955Z,2.08
2023-05-04T08:11:42.138Z,1.73
2023-05-04T08:14:28.165Z,1.98
2023-05-04T08:17:14.394Z,2.08
2023-05-04T08:20:00.382Z,2.53
2023-05-04T08:22:47.490Z,2.20
2023-05-04T08:25:33.288Z,2.80
2023-05-04T08:28:18.957Z,2.30
2023-05-04T08:31:04.902Z,2.08
2023-05-04T08:33:51.643Z,2.35
2023-05-04T08:36:37.512Z,2.55
2023-05-04T08:39:23.275Z,1.90
2023-05-04T08:42:09.879Z,2.22
2023-05-04T08:44:56.274Z,2.33
2023-05-04T08:47:43.571Z,2.80
2023-05-04T08:50:29.843Z,2.10
2023-05-04T08:53:18.624Z,1.70
2023-05-04T08:56:09.608Z,1.90
2023-05-04T08:59:01.798Z,2.10
2023-05-04T09:01:51.305Z,2.20
2023-05-04T09:04:37.742Z,1.70
2023-05-04T09:07:23.922Z,1.60
2023-05-04T09:10:10.200Z,1.50
2023-05-04T09:12:56.274Z,3.15
2023-05-04T09:15:42.450Z,6.55
2023-05-04T09:18:45.665Z,11.95
2023-05-04T09:21:32.220Z,2.22
2023-05-04T09:24:30.870Z,2.03
2023-05-04T09:27:18.281Z,2.10
2023-05-04T09:30:05.558Z,2.60
2023-05-04T09:32:51.685Z,2.50
2023-05-04T09:35:41.132Z,2.25
2023-05-04T09:38:27.564Z,4.13
2023-05-04T09:41:13.766Z,4.88
2023-05-04T09:43:59.653Z,4.88
2023-05-04T09:46:55.852Z,6.30
2023-05-04T09:49:41.571Z,6.32
2023-05-04T09:52:29.276Z,7.15
2023-05-04T09:55:17.061Z,6.50
2023-05-04T09:58:03.045Z,5.93
2023-05-04T10:00:49.141Z,3.13
2023-05-04T10:03:35.278Z,3.30
2023-05-04T10:06:22.063Z,3.90
2023-05-04T10:09:08.082Z,4.57
2023-05-04T10:11:54.069Z,3.90
2023-05-04T10:14:39.993Z,2.40
2023-05-04T10:17:48.081Z,1.80
2023-05-04T10:21:02.108Z,3.00
2023-05-04T10:24:00.329Z,5.40
2023-05-04T10:27:13.872Z,3.40
2023-05-04T10:30:01.426Z,3.03
2023-05-04T10:32:55.751Z,4.05
2023-05-04T10:35:54.946Z,4.05
2023-05-04T10:38:41.509Z,5.72
2023-05-04T10:41:27.385Z,4.97
2023-05-04T10:44:13.403Z,5.95
2023-05-04T10:47:08.912Z,3.50
2023-05-04T10:50:02.572Z,3.10
2023-05-04T10:52:49.786Z,8.65
2023-05-04T10:55:41.834Z,7.68
2023-05-04T10:58:30.623Z,2.70
2023-05-04T11:01:17.626Z,2.90
2023-05-04T11:04:03.825Z,3.45
2023-05-04T11:07:00.424Z,3.60
2023-05-04T11:09:46.209Z,2.17
2023-05-04T11:12:32.999Z,2.13
2023-05-04T11:15:19.477Z,2.58
2023-05-04T11:18:05.713Z,2.50
2023-05-04T11:20:51.735Z,3.08
2023-05-04T11:23:40.200Z,3.25
2023-05-04T11:26:26.645Z,4.75
2023-05-04T11:29:13.906Z,5.53
2023-05-04T11:31:59.733Z,16.65
2023-05-04T11:34:48.856Z,8.75
2023-05-04T11:37:43.158Z,3.97
2023-05-04T11:40:29.129Z,3.75
2023-05-04T11:43:16.145Z,2.20
2023-05-04T11:46:02.879Z,2.10
2023-05-04T11:48:50.095Z,2.50
2023-05-04T11:51:36.265Z,7.90
2023-05-04T11:54:22.382Z,2.60
2023-05-04T11:57:08.284Z,25.75
2023-05-04T11:59:54.777Z,9.32
2023-05-04T12:02:41.206Z,7.88
2023-05-04T12:05:28.678Z,8.02
2023-05-04T12:08:27.663Z,3.78
2023-05-04T12:11:27.627Z,3.63
2023-05-04T12:14:14.118Z,5.70
2023-05-04T12:17:04.670Z,11.15
2023-05-04T12:19:55.279Z,4.50
2023-05-04T12:22:41.453Z,2.80
2023-05-04T12:25:27.221Z,10.52
2023-05-04T12:28:13.509Z,8.88
2023-05-04T12:31:00.474Z,19.02
2023-05-04T12:33:46.771Z,26.55
2023-05-04T12:36:32.544Z,56.65
2023-05-04T12:39:18.499Z,33.92
2023-05-04T12:42:04.742Z,9.43
2023-05-04T12:44:51.331Z,11.73
2023-05-04T12:47:37.546Z,26.73
2023-05-04T12:50:23.503Z,14.27
2023-05-04T12:53:09.358Z,30.23
2023-05-04T12:55:55.859Z,15.80
2023-05-04T12:58:41.896Z,9.45
2023-05-04T13:01:31.922Z,9.15
2023-05-04T13:04:17.903Z,5.70
2023-05-04T13:07:04.123Z,4.10
2023-05-04T13:09:49.994Z,4.00
2023-05-04T13:12:36.632Z,5.60
2023-05-04T13:15:23.749Z,11.20
2023-05-04T13:18:09.909Z,9.32
2023-05-04T13:20:56.729Z,6.90
2023-05-04T13:23:42.750Z,7.22
2023-05-04T13:26:28.522Z,6.03
2023-05-04T13:29:14.314Z,9.02
2023-05-04T13:32:00.371Z,6.30
2023-05-04T13:34:47.755Z,8.52
2023-05-04T13:37:35.587Z,14.90
2023-05-04T13:40:22.152Z,13.23
2023-05-04T13:43:08.054Z,9.77
2023-05-04T13:45:54.004Z,6.53
2023-05-04T13:48:40.032Z,4.20
2023-05-04T13:51:25.960Z,2.33
2023-05-04T13:54:11.877Z,1.50
2023-05-04T13:56:57.618Z,1.88
2023-05-04T13:59:51.593Z,2.13
2023-05-04T14:02:46.474Z,1.85
2023-05-04T14:05:32.298Z,1.95
2023-05-04T14:08:21.313Z,2.03
2023-05-04T14:11:08.492Z,2.20
2023-05-04T14:13:56.111Z,2.38
2023-05-04T14:16:42.503Z,2.03
2023-05-04T14:19:28.791Z,2.00
2023-05-04T14:22:14.758Z,1.83
2023-05-04T14:25:00.872Z,1.77
2023-05-04T14:27:46.785Z,1.80
2023-05-04T14:30:33.751Z,1.60
2023-05-04T14:33:19.599Z,1.50
2023-05-04T14:36:05.915Z,1.67
2023-05-04T14:38:51.829Z,1.65
2023-05-04T14:41:38.573Z,1.88
2023-05-04T14:44:26.162Z,1.60
2023-05-04T14:47:11.965Z,1.88
2023-05-04T14:49:58.210Z,2.10
2023-05-04T14:52:44.609Z,1.85
2023-05-04T14:55:33.507Z,2.20
2023-05-04T14:58:19.606Z,2.00
2023-05-04T15:01:06.265Z,2.15
2023-05-04T15:03:52.581Z,2.08
2023-05-04T15:06:40.326Z,2.10
2023-05-04T15:09:26.421Z,2.30
2023-05-04T15:12:12.626Z,2.00
2023-05-04T15:14:58.720Z,2.50
2023-05-04T15:17:44.446Z,2.30
2023-05-04T15:20:30.537Z,2.00
2023-05-04T15:23:16.460Z,1.98
2023-05-04T15:26:02.591Z,2.53
2023-05-04T15:28:48.799Z,2.88
2023-05-04T15:31:34.738Z,2.60
2023-05-04T15:34:20.551Z,2.38
2023-05-04T15:37:06.677Z,2.92
2023-05-04T15:39:53.576Z,3.13
2023-05-04T15:42:39.490Z,2.88
2023-05-04T15:45:25.422Z,3.28
2023-05-04T15:48:11.407Z,3.20
2023-05-04T15:50:57.229Z,3.70
2023-05-04T15:53:42.974Z,3.30
2023-05-04T15:56:28.792Z,3.40
2023-05-04T15:59:17.377Z,3.88
2023-05-04T16:02:06.001Z,3.75
2023-05-04T16:04:51.719Z,4.53
2023-05-04T16:07:37.673Z,4.60
2023-05-04T16:10:23.996Z,4.30
2023-05-04T16:13:12.198Z,4.22
2023-05-04T16:15:58.402Z,4.65
2023-05-04T16:18:44.408Z,5.20
2023-05-04T16:21:30.484Z,5.15
2023-05-04T16:24:16.582Z,5.00
2023-05-04T16:27:03.488Z,5.00
2023-05-04T16:29:49.189Z,5.18
2023-05-04T16:32:34.953Z,9.55
2023-05-04T16:35:20.894Z,9.23
2023-05-04T16:38:07.127Z,6.20
2023-05-04T16:40:53.232Z,5.70
2023-05-04T16:43:39.010Z,5.28
2023-05-04T16:46:25.147Z,6.50
2023-05-04T16:49:12.549Z,6.63
2023-05-04T16:52:00.211Z,4.95
2023-05-04T16:54:46.359Z,5.78
2023-05-04T16:57:32.337Z,6.70
2023-05-04T17:00:18.561Z,5.45
2023-05-04T17:03:04.829Z,6.28
2023-05-04T17:05:51.615Z,6.00
2023-05-04T17:08:37.695Z,12.80
2023-05-04T17:11:24.129Z,14.52
2023-05-04T17:14:10.045Z,9.77
2023-05-04T17:16:56.116Z,9.48
2023-05-04T17:19:42.456Z,8.70
2023-05-04T17:22:28.499Z,7.85
2023-05-04T17:25:14.583Z,8.65
2023-05-04T17:28:00.393Z,7.80
2023-05-04T17:30:46.721Z,8.63
2023-05-04T17:33:32.642Z,7.57
2023-05-04T17:36:18.463Z,7.47
2023-05-04T17:39:04.705Z,7.85
2023-05-04T17:41:51.144Z,9.05
2023-05-04T17:44:36.998Z,8.10
2023-05-04T17:47:23.220Z,8.68
2023-05-04T17:50:09.824Z,8.70
2023-05-04T17:52:56.044Z,9.75
2023-05-04T17:55:42.461Z,9.15
2023-05-04T17:58:28.449Z,10.48
2023-05-04T18:01:14.598Z,10.02
2023-05-04T18:04:04.161Z,8.95
2023-05-04T18:06:50.909Z,8.98
2023-05-04T18:09:36.925Z,9.13
2023-05-04T18:12:23.219Z,8.57
2023-05-04T18:15:09.768Z,8.40
2023-05-04T18:17:55.778Z,7.93
2023-05-04T18:20:42.110Z,7.75
2023-05-04T18:23:28.010Z,7.50
2023-05-04T18:26:22.870Z,7.90
2023-05-04T18:29:18.358Z,8.35
2023-05-04T18:32:08.098Z,7.35
2023-05-04T18:34:54.954Z,6.75
2023-05-04T18:37:41.083Z,6.90
2023-05-04T18:40:27.229Z,6.93
2023-05-04T18:43:13.180Z,6.25
2023-05-04T18:46:06.715Z,5.50
2023-05-04T18:48:53.155Z,5.22
2023-05-04T18:51:41.926Z,6.43
2023-05-04T18:54:34.178Z,8.80
2023-05-04T18:57:20.710Z,8.70
2023-05-04T19:00:07.702Z,7.47
2023-05-04T19:02:54.157Z,6.60
2023-05-04T19:05:40.774Z,6.00
2023-05-04T19:08:27.065Z,7.53
2023-05-04T19:11:13.110Z,7.93
2023-05-04T19:13:59.492Z,5.95
2023-05-04T19:16:45.812Z,7.40
2023-05-04T19:19:32.107Z,6.80
2023-05-04T19:22:18.119Z,6.10
2023-05-04T19:25:04.696Z,7.40
2023-05-04T19:27:51.068Z,7.07
2023-05-04T19:30:38.278Z,7.18
2023-05-04T19:33:30.352Z,7.13
2023-05-04T19:36:23.110Z,6.63
2023-05-04T19:39:10.429Z,6.70
2023-05-04T19:41:56.477Z,6.68
2023-05-04T19:44:42.575Z,7.20
2023-05-04T19:47:28.979Z,9.25
2023-05-04T19:50:16.856Z,8.48
2023-05-04T19:53:03.271Z,24.73
2023-05-04T19:55:49.595Z,67.47
2023-05-04T19:58:36.933Z,67.57
2023-05-04T20:01:24.084Z,73.70
2023-05-04T20:04:12.871Z,20.17
2023-05-04T20:06:59.005Z,8.50
2023-05-04T20:09:45.069Z,110.10
2023-05-04T20:12:31.381Z,96.22
2023-05-04T20:15:17.923Z,116.22
2023-05-04T20:18:04.187Z,86.88
2023-05-04T20:20:52.412Z,12.13
2023-05-04T20:23:38.872Z,10.07
2023-05-04T20:26:25.113Z,9.73
2023-05-04T20:29:11.416Z,8.65
2023-05-04T20:31:57.585Z,74.30
2023-05-04T20:34:45.061Z,77.80
2023-05-04T20:37:30.719Z,21.63
2023-05-04T20:40:17.004Z,9.90
2023-05-04T20:43:02.598Z,8.07
2023-05-04T20:45:48.614Z,7.03
2023-05-04T20:48:35.596Z,8.00
2023-05-04T20:51:21.658Z,6.38
2023-05-04T20:54:07.503Z,86.90
2023-05-04T20:56:53.304Z,61.85
2023-05-04T20:59:39.293Z,68.82
2023-05-04T21:02:25.305Z,137.63
2023-05-04T21:05:11.529Z,27.35
2023-05-04T21:07:57.944Z,6.85
2023-05-04T21:10:44.018Z,6.75
2023-05-04T21:13:29.926Z,5.57
2023-05-04T21:16:16.190Z,5.55
2023-05-04T21:19:02.465Z,4.85
2023-05-04T21:21:49.405Z,4.78
2023-05-04T21:24:36.440Z,4.65
2023-05-04T21:27:22.334Z,4.55
2023-05-04T21:30:10.040Z,4.10
2023-05-04T21:32:56.428Z,4.75
2023-05-04T21:35:42.477Z,3.97
2023-05-04T21:38:28.782Z,4.30
2023-05-04T21:41:17.429Z,3.70
2023-05-04T21:44:03.178Z,4.05
2023-05-04T21:46:49.359Z,4.30
2023-05-04T21:49:35.444Z,4.43
2023-05-04T21:52:21.355Z,5.53
2023-05-04T21:55:07.719Z,5.82
2023-05-04T21:57:53.603Z,5.47
2023-05-04T22:00:39.761Z,5.93
2023-05-04T22:03:25.949Z,6.57
2023-05-04T22:06:12.158Z,7.43
2023-05-04T22:08:58.456Z,8.68
2023-05-04T22:11:44.322Z,7.20
2023-05-04T22:14:30.103Z,5.70
2023-05-04T22:17:16.215Z,5.85
2023-05-04T22:20:02.341Z,5.65
2023-05-04T22:22:48.100Z,7.38
2023-05-04T22:25:33.951Z,7.50
2023-05-04T22:28:19.820Z,7.35
2023-05-04T22:31:05.626Z,8.27
2023-05-04T22:33:51.503Z,8.90
2023-05-04T22:36:37.544Z,9.05
2023-05-04T22:39:23.383Z,8.63
2023-05-04T22:42:09.434Z,10.95
2023-05-04T22:44:55.711Z,9.50
2023-05-04T22:47:42.340Z,10.18
2023-05-04T22:50:27.966Z,10.57
2023-05-04T22:53:14.771Z,8.75
2023-05-04T22:56:01.002Z,10.50
2023-05-04T22:58:47.124Z,10.38
2023-05-04T23:01:35.226Z,10.82
2023-05-04T23:04:21.288Z,10.60
2023-05-04T23:07:07.264Z,12.65
2023-05-04T23:09:53.321Z,11.55
2023-05-04T23:12:39.172Z,11.32
2023-05-04T23:15:25.177Z,11.30
2023-05-04T23:18:10.935Z,10.65
2023-05-04T23:20:57.036Z,11.05
2023-05-04T23:23:43.081Z,12.90
2023-05-04T23:26:28.996Z,11.45
2023-05-04T23:29:14.910Z,12.52
2023-05-04T23:32:01.318Z,11.05
2023-05-04T23:34:47.703Z,9.68
2023-05-04T23:37:33.535Z,9.57
2023-05-04T23:40:20.017Z,9.30
2023-05-04T23:43:05.889Z,10.50
2023-05-04T23:46:02.146Z,11.02
2023-05-04T23:48:48.284Z,9.85
2023-05-04T23:51:34.089Z,9.48
2023-05-04T23:54:20.014Z,10.63
2023-05-04T23:57:08.610Z,10.57
2023-05-04T23:59:54.562Z,10.82
